Erwinna, Pennsylvania
Current Conditions -  °F | °C
As of 11:54 PM on Wednesday 26 Nov 2014 (Local Time) from KDYL Reporting Station
Overcast Overcast  
Wind Chill: 29°   Ceiling: 7500
Heat Index: 33°   Visibility: 10mi
Dew Point: 31°   Wind: 5mph
Humidity: 92%   Direction: 290°WNW
Pressure: 29.88"   Gusts: NA
Location:  40.5°N, 75.07°W
Report Text: KDYL 270454Z AUTO 29004KT 10SM FEW055 OVC075 01/M01 A2988 RMK AO2 SLP126 T00061006 400670000
Loading
Personal Weather Stations






























Interactive Weather Map New forecast layout! Learn more

10-Day Weather Forecast

Advertisements
Track Severe Weather on mobile